Etusivu
METAR-TAF:

METAR-TAF

Lentoasemat :

Waupaca Municipal Airport

Waupaca, Wisconsin, Yhdysvallat

Leveyspiiri: 44-20-01N, Pituuspiiri: 089-00-55W, korkeus merenpinnasta: 252 m

Tämänhetkinen sää

Tämä raportti tehtiin 34 minuuttia sitten, kello 14.35 UTC
Tuuli 7 kn lounaasta
Lämpötila 23°C
Kosteus 69%
Ilmanpaine 1011 hPa
Näkyvyys: 16.1 km
selkeää

METAR: KPCZ 031435Z AUTO 23007KT 10SM CLR 23/17 A2984 RMK AO2 T02260172

Aika: 10:09 (15:09 UTC)


TAF: puuttuu

Säähavainnot ja -ennusteet yli 4000 lentoasemalta (METAR- ja TAF-raportit).

Käytössä olevat sääasemat on merkitty karttaan keltaisilla ja punaisilla pisteillä.

Aseta hiiri pisteen päälle nähdäksesi sääaseman nimen.

Klikkaa sitten nähdäksesi säähavainnot ja -ennusteet.

Kartan vaihtaminen: klikkaa mustalla rastilla varustettuja vihreitä pisteitä, niin voit zoomata sisään; viivalla varustettua vihreää pistettä, niin voit zoomata ulos tai vihreitä nuolia, niin pääset viereisille kartoille.


METAR-TAF: